Nathrop, Colorado
Current Conditions -  °F | °C
As of 12:15 AM on Sunday 26 Oct 2014 (Local Time) from KAEJ Reporting Station
Clear Clear  
Wind Chill: 35°   Ceiling: Unl
Heat Index: 40°   Visibility: 10mi
Dew Point: 23°   Wind: 8mph
Humidity: 50%   Direction: 260°W
Pressure: 30.22"   Gusts: NA
Location:  38.75°N, 106.08°W
Report Text: KAEJ 260615Z AUTO 26007KT 10SM CLR 05/M05 A3022 RMK AO2 T00451051
Loading
Personal Weather Stations






























Interactive Weather Map New forecast layout! Learn more

10-Day Weather Forecast

Advertisements
Track Severe Weather on mobile